TimeEST,TemperatureF,Dew PointF,Humidity,Sea Level PressureIn,VisibilityMPH,Wind Direction,Wind SpeedMPH,Gust SpeedMPH,PrecipitationIn,Events,Conditions,WindDirDegrees,DateUTC
12:52 AM,39.9,27.0,60,29.98,10.0,NE,9.2,-,N/A,,Mostly Cloudy,40,2013-02-13 05:52:00
1:52 AM,37.9,28.0,68,29.96,10.0,NE,8.1,-,N/A,,Partly Cloudy,50,2013-02-13 06:52:00
2:52 AM,37.0,26.1,65,29.94,10.0,NNE,4.6,-,N/A,,Partly Cloudy,30,2013-02-13 07:52:00
3:52 AM,36.0,26.1,67,29.91,10.0,NNE,6.9,-,N/A,,Partly Cloudy,30,2013-02-13 08:52:00
4:52 AM,36.0,26.1,67,29.91,10.0,NE,4.6,-,N/A,,Partly Cloudy,50,2013-02-13 09:52:00
5:52 AM,35.1,26.1,70,29.91,10.0,NNE,9.2,-,N/A,,Mostly Cloudy,20,2013-02-13 10:52:00
6:52 AM,36.0,27.0,70,29.89,10.0,NE,8.1,-,N/A,,Mostly Cloudy,50,2013-02-13 11:52:00
7:52 AM,37.0,27.0,67,29.91,10.0,Calm,Calm,-,N/A,,Overcast,0,2013-02-13 12:52:00
8:52 AM,39.0,27.0,62,29.90,10.0,ENE,6.9,-,N/A,,Overcast,60,2013-02-13 13:52:00
9:52 AM,41.0,26.1,55,29.88,10.0,ENE,5.8,-,N/A,,Overcast,70,2013-02-13 14:52:00
10:52 AM,42.1,27.0,55,29.86,10.0,East,4.6,-,N/A,,Overcast,90,2013-02-13 15:52:00
11:52 AM,46.0,28.0,50,29.82,10.0,SE,5.8,-,N/A,,Mostly Cloudy,130,2013-02-13 16:52:00
12:52 PM,46.9,30.0,52,29.76,10.0,SE,8.1,-,N/A,,Overcast,130,2013-02-13 17:52:00
1:52 PM,48.0,30.0,50,29.74,10.0,NE,4.6,-,N/A,,Overcast,40,2013-02-13 18:52:00
2:52 PM,46.0,33.1,61,29.69,9.0,ESE,5.8,-,0.00,Rain,Light Rain,120,2013-02-13 19:52:00
3:52 PM,44.1,35.1,71,29.68,10.0,ENE,3.5,-,0.00,,Overcast,70,2013-02-13 20:52:00
4:22 PM,42.8,35.6,76,29.67,3.0,East,8.1,-,0.00,Rain,Light Rain,100,2013-02-13 21:22:00
4:25 PM,42.8,35.6,76,29.68,3.0,East,6.9,-,0.00,Rain,Light Rain,80,2013-02-13 21:25:00
4:32 PM,42.8,35.6,76,29.67,3.0,ENE,4.6,-,0.01,Rain,Light Rain,70,2013-02-13 21:32:00
4:41 PM,42.8,35.6,76,29.67,3.0,ENE,5.8,-,0.01,Rain,Light Rain,60,2013-02-13 21:41:00
4:52 PM,43.0,36.0,76,29.68,3.0,East,4.6,-,0.02,Rain,Light Rain,80,2013-02-13 21:52:00
5:52 PM,39.9,35.1,83,29.68,4.0,NNE,12.7,-,0.05,Rain,Light Rain,30,2013-02-13 22:52:00
6:43 PM,37.4,33.8,87,29.69,5.0,NE,10.4,-,0.03,Rain,Light Rain,40,2013-02-13 23:43:00
6:48 PM,37.4,33.8,87,29.69,5.0,NE,9.2,-,0.03,Rain,Light Rain,40,2013-02-13 23:48:00
6:49 PM,37.9,34.0,86,29.69,5.0,NNE,8.1,-,0.03,Rain,Light Rain,30,2013-02-13 23:49:00
6:51 PM,37.4,33.8,87,29.69,5.0,NNE,9.2,-,0.00,Rain,Light Rain,20,2013-02-13 23:51:00
7:16 PM,37.4,33.8,87,29.70,5.0,NNE,11.5,-,0.01,Rain,Light Rain,20,2013-02-14 00:16:00
7:19 PM,37.4,33.8,87,29.70,5.0,NNE,10.4,-,0.01,Rain,Light Rain,20,2013-02-14 00:19:00
7:22 PM,37.4,33.8,87,29.71,5.0,NNE,10.4,-,0.02,Rain,Light Rain,20,2013-02-14 00:22:00
7:36 PM,37.4,33.8,87,29.71,5.0,North,11.5,-,0.02,Rain,Light Rain,10,2013-02-14 00:36:00
7:52 PM,37.9,34.0,86,29.72,5.0,North,8.1,-,0.03,Rain,Light Rain,360,2013-02-14 00:52:00
8:22 PM,37.4,33.8,87,29.72,5.0,NNW,11.5,-,0.02,Rain,Light Rain,340,2013-02-14 01:22:00
8:52 PM,37.0,34.0,89,29.72,6.0,NNW,8.1,-,0.03,Rain,Light Rain,340,2013-02-14 01:52:00
9:43 PM,35.6,32.0,87,29.75,5.0,NNW,11.5,-,0.02,Rain-Snow,Light Rain,330,2013-02-14 02:43:00
9:52 PM,36.0,33.1,89,29.75,5.0,NNW,11.5,-,0.02,Rain-Snow,Light Rain,330,2013-02-14 02:52:00
10:14 PM,35.6,33.8,93,29.76,6.0,NNW,9.2,-,0.01,Rain-Snow,Light Rain,330,2013-02-14 03:14:00
10:21 PM,35.6,33.8,93,29.76,6.0,NNW,12.7,-,0.01,Rain-Snow,Light Rain,330,2013-02-14 03:21:00
10:40 PM,35.6,33.8,93,29.77,6.0,NNW,9.2,-,0.01,,Overcast,340,2013-02-14 03:40:00
10:52 PM,36.0,33.1,89,29.77,6.0,NNW,8.1,-,0.01,,Overcast,340,2013-02-14 03:52:00
11:09 PM,35.6,33.8,93,29.78,6.0,NW,8.1,-,N/A,,Overcast,320,2013-02-14 04:09:00
11:24 PM,37.4,33.8,87,29.77,6.0,NNW,8.1,-,N/A,,Overcast,330,2013-02-14 04:24:00
11:52 PM,37.0,33.1,86,29.79,6.0,NW,8.1,-,N/A,,Overcast,320,2013-02-14 04:52:00